sensor_id;sensor_type;location;lat;lon;timestamp;temperature;humidity
33564;DHT22;19894;48.452;11.494;2023-04-08T00:00:06;18.40;34.50
33564;DHT22;19894;48.452;11.494;2023-04-08T00:02:32;18.40;34.60
33564;DHT22;19894;48.452;11.494;2023-04-08T00:04:58;18.40;34.60
33564;DHT22;19894;48.452;11.494;2023-04-08T00:07:24;18.40;34.70
33564;DHT22;19894;48.452;11.494;2023-04-08T00:09:49;18.40;34.90
33564;DHT22;19894;48.452;11.494;2023-04-08T00:12:15;18.40;34.80
33564;DHT22;19894;48.452;11.494;2023-04-08T00:14:41;18.40;34.70
33564;DHT22;19894;48.452;11.494;2023-04-08T00:17:08;18.40;34.60
33564;DHT22;19894;48.452;11.494;2023-04-08T00:19:33;18.40;34.70
33564;DHT22;19894;48.452;11.494;2023-04-08T00:21:59;18.30;34.50
33564;DHT22;19894;48.452;11.494;2023-04-08T00:24:24;18.40;34.60
33564;DHT22;19894;48.452;11.494;2023-04-08T00:26:51;18.40;34.50
33564;DHT22;19894;48.452;11.494;2023-04-08T00:29:16;18.40;34.50
33564;DHT22;19894;48.452;11.494;2023-04-08T00:31:42;18.40;34.40
33564;DHT22;19894;48.452;11.494;2023-04-08T00:34:08;18.40;34.40
33564;DHT22;19894;48.452;11.494;2023-04-08T00:36:33;18.40;34.40
33564;DHT22;19894;48.452;11.494;2023-04-08T00:39:01;18.40;34.30
33564;DHT22;19894;48.452;11.494;2023-04-08T00:41:26;18.30;34.20
33564;DHT22;19894;48.452;11.494;2023-04-08T00:43:53;18.40;34.20
33564;DHT22;19894;48.452;11.494;2023-04-08T00:46:19;18.40;34.20
33564;DHT22;19894;48.452;11.494;2023-04-08T00:48:45;18.40;34.20
33564;DHT22;19894;48.452;11.494;2023-04-08T00:51:11;18.30;34.10
33564;DHT22;19894;48.452;11.494;2023-04-08T00:53:38;18.40;34.10
33564;DHT22;19894;48.452;11.494;2023-04-08T00:56:03;18.40;34.10
33564;DHT22;19894;48.452;11.494;2023-04-08T00:58:29;18.40;34.10
33564;DHT22;19894;48.452;11.494;2023-04-08T01:01:35;18.40;34.10
33564;DHT22;19894;48.452;11.494;2023-04-08T01:04:25;18.40;34.10
33564;DHT22;19894;48.452;11.494;2023-04-08T01:06:57;18.40;34.20
33564;DHT22;19894;48.452;11.494;2023-04-08T01:09:26;18.30;34.20
33564;DHT22;19894;48.452;11.494;2023-04-08T01:11:55;18.40;34.40
33564;DHT22;19894;48.452;11.494;2023-04-08T01:14:25;18.40;34.50
33564;DHT22;19894;48.452;11.494;2023-04-08T01:16:54;18.40;34.50
33564;DHT22;19894;48.452;11.494;2023-04-08T01:19:28;18.40;34.50
33564;DHT22;19894;48.452;11.494;2023-04-08T01:22:04;18.40;34.50
33564;DHT22;19894;48.452;11.494;2023-04-08T01:24:35;18.40;34.50
33564;DHT22;19894;48.452;11.494;2023-04-08T01:27:04;18.40;34.50
33564;DHT22;19894;48.452;11.494;2023-04-08T01:29:31;18.40;34.60
33564;DHT22;19894;48.452;11.494;2023-04-08T01:31:59;18.30;34.50
33564;DHT22;19894;48.452;11.494;2023-04-08T01:34:26;18.40;34.60
33564;DHT22;19894;48.452;11.494;2023-04-08T01:36:54;18.40;34.60
33564;DHT22;19894;48.452;11.494;2023-04-08T01:39:20;18.40;34.60
33564;DHT22;19894;48.452;11.494;2023-04-08T01:41:47;18.30;34.60
33564;DHT22;19894;48.452;11.494;2023-04-08T01:44:14;18.30;34.40
33564;DHT22;19894;48.452;11.494;2023-04-08T01:46:41;18.40;34.50
33564;DHT22;19894;48.452;11.494;2023-04-08T01:49:08;18.30;34.40
33564;DHT22;19894;48.452;11.494;2023-04-08T01:51:36;18.40;34.40
33564;DHT22;19894;48.452;11.494;2023-04-08T01:54:02;18.30;34.30
33564;DHT22;19894;48.452;11.494;2023-04-08T01:56:28;18.40;34.40
33564;DHT22;19894;48.452;11.494;2023-04-08T01:58:57;18.30;34.30
33564;DHT22;19894;48.452;11.494;2023-04-08T02:01:26;18.40;34.40
33564;DHT22;19894;48.452;11.494;2023-04-08T02:03:54;18.40;34.50
33564;DHT22;19894;48.452;11.494;2023-04-08T02:06:22;18.30;34.40
33564;DHT22;19894;48.452;11.494;2023-04-08T02:08:48;18.40;34.50
33564;DHT22;19894;48.452;11.494;2023-04-08T02:11:13;18.40;34.60
33564;DHT22;19894;48.452;11.494;2023-04-08T02:13:39;18.40;34.60
33564;DHT22;19894;48.452;11.494;2023-04-08T02:16:48;18.40;34.60
33564;DHT22;19894;48.452;11.494;2023-04-08T02:19:23;18.40;34.70
33564;DHT22;19894;48.452;11.494;2023-04-08T02:21:54;18.40;34.80
33564;DHT22;19894;48.452;11.494;2023-04-08T02:24:21;18.40;34.80
33564;DHT22;19894;48.452;11.494;2023-04-08T02:26:49;18.40;34.80
33564;DHT22;19894;48.452;11.494;2023-04-08T02:29:17;18.40;34.80
33564;DHT22;19894;48.452;11.494;2023-04-08T02:31:43;18.30;34.80
33564;DHT22;19894;48.452;11.494;2023-04-08T02:34:10;18.40;34.80
33564;DHT22;19894;48.452;11.494;2023-04-08T02:36:37;18.40;34.90
33564;DHT22;19894;48.452;11.494;2023-04-08T02:39:03;18.40;34.90
33564;DHT22;19894;48.452;11.494;2023-04-08T02:41:29;18.40;34.90
33564;DHT22;19894;48.452;11.494;2023-04-08T02:43:55;18.40;35.00
33564;DHT22;19894;48.452;11.494;2023-04-08T02:46:21;18.40;35.00
33564;DHT22;19894;48.452;11.494;2023-04-08T02:48:46;18.40;35.00
33564;DHT22;19894;48.452;11.494;2023-04-08T02:51:12;18.40;35.00
33564;DHT22;19894;48.452;11.494;2023-04-08T02:53:37;18.40;35.10
33564;DHT22;19894;48.452;11.494;2023-04-08T02:56:03;18.40;35.20
33564;DHT22;19894;48.452;11.494;2023-04-08T02:58:29;18.40;35.20
33564;DHT22;19894;48.452;11.494;2023-04-08T03:00:54;18.40;35.20
33564;DHT22;19894;48.452;11.494;2023-04-08T03:03:20;18.30;35.20
33564;DHT22;19894;48.452;11.494;2023-04-08T03:05:52;18.30;35.30
33564;DHT22;19894;48.452;11.494;2023-04-08T03:08:18;18.40;35.30
33564;DHT22;19894;48.452;11.494;2023-04-08T03:10:44;18.40;35.40
33564;DHT22;19894;48.452;11.494;2023-04-08T03:13:09;18.40;35.30
33564;DHT22;19894;48.452;11.494;2023-04-08T03:15:35;18.40;35.30
33564;DHT22;19894;48.452;11.494;2023-04-08T03:18:01;18.40;35.30
33564;DHT22;19894;48.452;11.494;2023-04-08T03:20:26;18.40;35.30
33564;DHT22;19894;48.452;11.494;2023-04-08T03:22:52;18.40;35.30
33564;DHT22;19894;48.452;11.494;2023-04-08T03:25:17;18.40;35.30
33564;DHT22;19894;48.452;11.494;2023-04-08T03:27:43;18.40;35.40
33564;DHT22;19894;48.452;11.494;2023-04-08T03:30:08;18.40;35.50
33564;DHT22;19894;48.452;11.494;2023-04-08T03:32:34;18.30;35.30
33564;DHT22;19894;48.452;11.494;2023-04-08T03:35:00;18.30;35.40
33564;DHT22;19894;48.452;11.494;2023-04-08T03:37:25;18.30;35.40
33564;DHT22;19894;48.452;11.494;2023-04-08T03:39:51;18.40;35.40
33564;DHT22;19894;48.452;11.494;2023-04-08T03:42:17;18.40;35.40
33564;DHT22;19894;48.452;11.494;2023-04-08T03:44:42;18.40;35.40
33564;DHT22;19894;48.452;11.494;2023-04-08T03:47:08;18.40;35.50
33564;DHT22;19894;48.452;11.494;2023-04-08T03:49:33;18.40;35.50
33564;DHT22;19894;48.452;11.494;2023-04-08T03:51:59;18.40;35.50
33564;DHT22;19894;48.452;11.494;2023-04-08T03:54:25;18.40;35.50
33564;DHT22;19894;48.452;11.494;2023-04-08T03:56:50;18.30;35.40
33564;DHT22;19894;48.452;11.494;2023-04-08T03:59:16;18.40;35.40
33564;DHT22;19894;48.452;11.494;2023-04-08T04:01:41;18.40;35.40
33564;DHT22;19894;48.452;11.494;2023-04-08T04:04:07;18.40;35.40
33564;DHT22;19894;48.452;11.494;2023-04-08T04:06:32;18.40;35.40
33564;DHT22;19894;48.452;11.494;2023-04-08T04:08:58;18.40;35.40
33564;DHT22;19894;48.452;11.494;2023-04-08T04:11:23;18.40;35.40
33564;DHT22;19894;48.452;11.494;2023-04-08T04:13:49;18.40;35.40
33564;DHT22;19894;48.452;11.494;2023-04-08T04:16:14;18.40;35.30
33564;DHT22;19894;48.452;11.494;2023-04-08T04:18:40;18.40;35.40
33564;DHT22;19894;48.452;11.494;2023-04-08T04:21:06;18.40;35.30
33564;DHT22;19894;48.452;11.494;2023-04-08T04:23:31;18.40;35.30
33564;DHT22;19894;48.452;11.494;2023-04-08T04:25:57;18.40;35.40
33564;DHT22;19894;48.452;11.494;2023-04-08T04:28:23;18.40;35.50
33564;DHT22;19894;48.452;11.494;2023-04-08T04:30:48;18.40;35.50
33564;DHT22;19894;48.452;11.494;2023-04-08T04:33:14;18.40;35.50
33564;DHT22;19894;48.452;11.494;2023-04-08T04:35:39;18.40;35.50
33564;DHT22;19894;48.452;11.494;2023-04-08T04:38:05;18.30;35.50
33564;DHT22;19894;48.452;11.494;2023-04-08T04:40:35;18.30;35.50
33564;DHT22;19894;48.452;11.494;2023-04-08T04:43:01;18.40;35.50
33564;DHT22;19894;48.452;11.494;2023-04-08T04:45:26;18.40;35.60
33564;DHT22;19894;48.452;11.494;2023-04-08T04:47:52;18.30;35.50
33564;DHT22;19894;48.452;11.494;2023-04-08T04:50:17;18.30;35.60
33564;DHT22;19894;48.452;11.494;2023-04-08T04:52:43;18.40;35.80
33564;DHT22;19894;48.452;11.494;2023-04-08T04:55:09;18.40;35.70
33564;DHT22;19894;48.452;11.494;2023-04-08T04:57:34;18.30;35.80
33564;DHT22;19894;48.452;11.494;2023-04-08T05:00:00;18.40;35.90
33564;DHT22;19894;48.452;11.494;2023-04-08T05:02:26;18.40;35.90
33564;DHT22;19894;48.452;11.494;2023-04-08T05:04:51;18.30;35.90
33564;DHT22;19894;48.452;11.494;2023-04-08T05:07:20;18.40;36.00
33564;DHT22;19894;48.452;11.494;2023-04-08T05:09:46;18.40;36.00
33564;DHT22;19894;48.452;11.494;2023-04-08T05:12:12;18.40;36.00
33564;DHT22;19894;48.452;11.494;2023-04-08T05:14:37;18.40;36.10
33564;DHT22;19894;48.452;11.494;2023-04-08T05:17:03;18.40;36.00
33564;DHT22;19894;48.452;11.494;2023-04-08T05:19:30;18.40;36.10
33564;DHT22;19894;48.452;11.494;2023-04-08T05:21:55;18.40;36.00
33564;DHT22;19894;48.452;11.494;2023-04-08T05:24:21;18.40;36.00
33564;DHT22;19894;48.452;11.494;2023-04-08T05:26:47;18.40;36.00
33564;DHT22;19894;48.452;11.494;2023-04-08T05:29:16;18.40;36.00
33564;DHT22;19894;48.452;11.494;2023-04-08T05:31:43;18.40;36.00
33564;DHT22;19894;48.452;11.494;2023-04-08T05:34:09;18.40;36.10
33564;DHT22;19894;48.452;11.494;2023-04-08T05:36:35;18.40;36.10
33564;DHT22;19894;48.452;11.494;2023-04-08T05:39:01;18.40;36.10
33564;DHT22;19894;48.452;11.494;2023-04-08T05:41:26;18.40;36.20
33564;DHT22;19894;48.452;11.494;2023-04-08T05:43:52;18.40;36.20
33564;DHT22;19894;48.452;11.494;2023-04-08T05:46:17;18.30;36.10
33564;DHT22;19894;48.452;11.494;2023-04-08T05:48:43;18.40;36.20
33564;DHT22;19894;48.452;11.494;2023-04-08T05:51:14;18.30;36.10
33564;DHT22;19894;48.452;11.494;2023-04-08T05:53:43;18.40;36.20
33564;DHT22;19894;48.452;11.494;2023-04-08T05:56:09;18.30;36.30
33564;DHT22;19894;48.452;11.494;2023-04-08T05:58:35;18.40;36.40
33564;DHT22;19894;48.452;11.494;2023-04-08T06:01:00;18.40;36.50
33564;DHT22;19894;48.452;11.494;2023-04-08T06:03:26;18.40;36.60
33564;DHT22;19894;48.452;11.494;2023-04-08T06:05:51;18.40;36.60
33564;DHT22;19894;48.452;11.494;2023-04-08T06:08:17;18.40;36.70
33564;DHT22;19894;48.452;11.494;2023-04-08T06:10:49;18.40;36.70
33564;DHT22;19894;48.452;11.494;2023-04-08T06:13:15;18.40;36.80
33564;DHT22;19894;48.452;11.494;2023-04-08T06:15:41;18.40;36.80
33564;DHT22;19894;48.452;11.494;2023-04-08T06:18:06;18.40;36.80
33564;DHT22;19894;48.452;11.494;2023-04-08T06:20:32;18.40;36.80
33564;DHT22;19894;48.452;11.494;2023-04-08T06:22:57;18.40;36.80
33564;DHT22;19894;48.452;11.494;2023-04-08T06:25:23;18.40;36.80
33564;DHT22;19894;48.452;11.494;2023-04-08T06:27:49;18.40;36.70
33564;DHT22;19894;48.452;11.494;2023-04-08T06:30:14;18.40;36.60
33564;DHT22;19894;48.452;11.494;2023-04-08T06:32:40;18.40;36.60
33564;DHT22;19894;48.452;11.494;2023-04-08T06:35:06;18.40;36.60
33564;DHT22;19894;48.452;11.494;2023-04-08T06:37:32;18.40;36.70
33564;DHT22;19894;48.452;11.494;2023-04-08T06:40:03;18.40;36.80
33564;DHT22;19894;48.452;11.494;2023-04-08T06:42:29;18.40;36.80
33564;DHT22;19894;48.452;11.494;2023-04-08T06:44:54;18.40;36.80
33564;DHT22;19894;48.452;11.494;2023-04-08T06:47:20;18.40;36.70
33564;DHT22;19894;48.452;11.494;2023-04-08T06:49:46;18.40;36.70
33564;DHT22;19894;48.452;11.494;2023-04-08T06:52:12;18.40;36.70
33564;DHT22;19894;48.452;11.494;2023-04-08T06:54:38;18.40;36.60
33564;DHT22;19894;48.452;11.494;2023-04-08T06:57:03;18.40;36.70
33564;DHT22;19894;48.452;11.494;2023-04-08T06:59:29;18.30;36.70
33564;DHT22;19894;48.452;11.494;2023-04-08T07:01:54;18.40;36.80
33564;DHT22;19894;48.452;11.494;2023-04-08T07:04:20;18.40;36.90
33564;DHT22;19894;48.452;11.494;2023-04-08T07:06:46;18.30;36.90
33564;DHT22;19894;48.452;11.494;2023-04-08T07:09:11;18.30;36.90
33564;DHT22;19894;48.452;11.494;2023-04-08T07:11:37;18.40;36.90
33564;DHT22;19894;48.452;11.494;2023-04-08T07:14:02;18.40;37.00
33564;DHT22;19894;48.452;11.494;2023-04-08T07:16:28;18.40;37.00
33564;DHT22;19894;48.452;11.494;2023-04-08T07:18:53;18.40;37.00
33564;DHT22;19894;48.452;11.494;2023-04-08T07:21:19;18.40;37.00
33564;DHT22;19894;48.452;11.494;2023-04-08T07:23:44;18.40;37.00
33564;DHT22;19894;48.452;11.494;2023-04-08T07:26:10;18.40;37.50
33564;DHT22;19894;48.452;11.494;2023-04-08T07:28:36;18.40;36.90
33564;DHT22;19894;48.452;11.494;2023-04-08T07:31:14;18.40;36.80
33564;DHT22;19894;48.452;11.494;2023-04-08T07:33:41;18.40;36.80
33564;DHT22;19894;48.452;11.494;2023-04-08T07:36:08;18.40;36.70
33564;DHT22;19894;48.452;11.494;2023-04-08T07:38:34;18.40;36.70
33564;DHT22;19894;48.452;11.494;2023-04-08T07:41:00;18.40;36.90
33564;DHT22;19894;48.452;11.494;2023-04-08T07:43:26;18.40;36.90
33564;DHT22;19894;48.452;11.494;2023-04-08T07:45:52;18.40;36.90
33564;DHT22;19894;48.452;11.494;2023-04-08T07:48:17;18.40;36.90
33564;DHT22;19894;48.452;11.494;2023-04-08T07:50:43;18.40;36.80
33564;DHT22;19894;48.452;11.494;2023-04-08T07:53:10;18.40;36.70
33564;DHT22;19894;48.452;11.494;2023-04-08T07:55:36;18.40;36.80
33564;DHT22;19894;48.452;11.494;2023-04-08T07:58:01;18.40;36.70
33564;DHT22;19894;48.452;11.494;2023-04-08T08:00:27;18.40;36.70
33564;DHT22;19894;48.452;11.494;2023-04-08T08:02:55;18.40;36.80
33564;DHT22;19894;48.452;11.494;2023-04-08T08:05:20;18.40;36.70
33564;DHT22;19894;48.452;11.494;2023-04-08T08:07:46;18.40;36.70
33564;DHT22;19894;48.452;11.494;2023-04-08T08:10:11;18.40;36.70
33564;DHT22;19894;48.452;11.494;2023-04-08T08:12:37;18.40;37.30
33564;DHT22;19894;48.452;11.494;2023-04-08T08:15:03;18.40;36.70
33564;DHT22;19894;48.452;11.494;2023-04-08T08:17:29;18.40;36.70
33564;DHT22;19894;48.452;11.494;2023-04-08T08:19:58;18.40;36.70
33564;DHT22;19894;48.452;11.494;2023-04-08T08:22:23;18.40;36.60
33564;DHT22;19894;48.452;11.494;2023-04-08T08:24:54;18.40;36.60
33564;DHT22;19894;48.452;11.494;2023-04-08T08:27:20;18.40;36.60
33564;DHT22;19894;48.452;11.494;2023-04-08T08:29:46;18.40;36.60
33564;DHT22;19894;48.452;11.494;2023-04-08T08:32:11;18.40;36.60
33564;DHT22;19894;48.452;11.494;2023-04-08T08:34:38;18.40;36.50
33564;DHT22;19894;48.452;11.494;2023-04-08T08:37:03;18.40;36.50
33564;DHT22;19894;48.452;11.494;2023-04-08T08:39:29;18.40;36.50
33564;DHT22;19894;48.452;11.494;2023-04-08T08:41:55;18.40;36.50
33564;DHT22;19894;48.452;11.494;2023-04-08T08:44:21;18.40;36.60
33564;DHT22;19894;48.452;11.494;2023-04-08T08:46:47;18.40;36.60
33564;DHT22;19894;48.452;11.494;2023-04-08T08:49:13;18.40;36.70
33564;DHT22;19894;48.452;11.494;2023-04-08T08:51:44;18.40;37.20
33564;DHT22;19894;48.452;11.494;2023-04-08T08:54:10;18.40;37.00
33564;DHT22;19894;48.452;11.494;2023-04-08T08:56:36;18.40;37.00
33564;DHT22;19894;48.452;11.494;2023-04-08T08:59:01;18.40;37.00
33564;DHT22;19894;48.452;11.494;2023-04-08T09:01:38;18.40;37.10
33564;DHT22;19894;48.452;11.494;2023-04-08T09:04:12;18.40;37.20
33564;DHT22;19894;48.452;11.494;2023-04-08T09:06:38;18.30;37.20
33564;DHT22;19894;48.452;11.494;2023-04-08T09:09:04;18.30;37.20
33564;DHT22;19894;48.452;11.494;2023-04-08T09:11:40;18.30;37.20
33564;DHT22;19894;48.452;11.494;2023-04-08T09:14:24;18.30;37.20
33564;DHT22;19894;48.452;11.494;2023-04-08T09:16:51;18.30;37.20
33564;DHT22;19894;48.452;11.494;2023-04-08T09:19:17;18.30;37.20
33564;DHT22;19894;48.452;11.494;2023-04-08T09:21:43;18.30;37.20
33564;DHT22;19894;48.452;11.494;2023-04-08T09:24:25;18.30;37.20
33564;DHT22;19894;48.452;11.494;2023-04-08T09:26:51;18.30;37.30
33564;DHT22;19894;48.452;11.494;2023-04-08T09:29:17;18.30;37.30
33564;DHT22;19894;48.452;11.494;2023-04-08T09:31:42;18.30;37.30
33564;DHT22;19894;48.452;11.494;2023-04-08T09:34:13;18.30;37.30
33564;DHT22;19894;48.452;11.494;2023-04-08T09:36:41;18.30;37.30
33564;DHT22;19894;48.452;11.494;2023-04-08T09:39:07;18.30;37.30
33564;DHT22;19894;48.452;11.494;2023-04-08T09:41:33;18.30;37.30
33564;DHT22;19894;48.452;11.494;2023-04-08T09:44:02;18.30;37.30
33564;DHT22;19894;48.452;11.494;2023-04-08T09:46:38;18.30;37.40
33564;DHT22;19894;48.452;11.494;2023-04-08T09:49:09;18.30;37.40
33564;DHT22;19894;48.452;11.494;2023-04-08T09:51:43;18.30;37.40
33564;DHT22;19894;48.452;11.494;2023-04-08T09:54:13;18.30;37.40
33564;DHT22;19894;48.452;11.494;2023-04-08T09:57:04;18.30;37.40
33564;DHT22;19894;48.452;11.494;2023-04-08T09:59:33;18.30;37.40
33564;DHT22;19894;48.452;11.494;2023-04-08T10:02:06;18.20;37.40
33564;DHT22;19894;48.452;11.494;2023-04-08T10:04:35;18.30;37.50
33564;DHT22;19894;48.452;11.494;2023-04-08T10:07:05;18.30;37.50
33564;DHT22;19894;48.452;11.494;2023-04-08T10:09:32;18.30;37.50
33564;DHT22;19894;48.452;11.494;2023-04-08T10:11:58;18.30;37.50
33564;DHT22;19894;48.452;11.494;2023-04-08T10:14:23;18.30;37.50
33564;DHT22;19894;48.452;11.494;2023-04-08T10:17:25;18.30;37.50
33564;DHT22;19894;48.452;11.494;2023-04-08T10:19:54;18.30;37.60
33564;DHT22;19894;48.452;11.494;2023-04-08T10:27:43;18.30;37.60
33564;DHT22;19894;48.452;11.494;2023-04-08T10:32:58;18.30;37.60
33564;DHT22;19894;48.452;11.494;2023-04-08T10:35:41;18.30;37.60
33564;DHT22;19894;48.452;11.494;2023-04-08T10:38:07;18.30;37.60
33564;DHT22;19894;48.452;11.494;2023-04-08T10:40:37;18.30;37.60
33564;DHT22;19894;48.452;11.494;2023-04-08T10:43:03;18.20;37.60
33564;DHT22;19894;48.452;11.494;2023-04-08T10:45:32;18.30;37.70
33564;DHT22;19894;48.452;11.494;2023-04-08T10:50:39;18.30;37.60
33564;DHT22;19894;48.452;11.494;2023-04-08T10:53:05;18.30;37.60
33564;DHT22;19894;48.452;11.494;2023-04-08T10:55:32;18.30;37.70
33564;DHT22;19894;48.452;11.494;2023-04-08T10:58:08;18.30;37.60
33564;DHT22;19894;48.452;11.494;2023-04-08T11:00:36;18.30;37.70
33564;DHT22;19894;48.452;11.494;2023-04-08T11:03:03;18.30;37.70
33564;DHT22;19894;48.452;11.494;2023-04-08T11:05:30;18.20;37.60
33564;DHT22;19894;48.452;11.494;2023-04-08T11:07:57;18.30;37.70
33564;DHT22;19894;48.452;11.494;2023-04-08T11:10:24;18.30;37.70
33564;DHT22;19894;48.452;11.494;2023-04-08T11:12:49;18.20;37.60
33564;DHT22;19894;48.452;11.494;2023-04-08T11:15:16;18.30;37.70
33564;DHT22;19894;48.452;11.494;2023-04-08T11:17:42;18.20;37.60
33564;DHT22;19894;48.452;11.494;2023-04-08T11:20:08;18.20;37.60
33564;DHT22;19894;48.452;11.494;2023-04-08T11:22:35;18.20;37.60
33564;DHT22;19894;48.452;11.494;2023-04-08T11:25:01;18.30;38.30
33564;DHT22;19894;48.452;11.494;2023-04-08T11:27:27;18.30;37.70
33564;DHT22;19894;48.452;11.494;2023-04-08T11:29:54;18.30;37.70
33564;DHT22;19894;48.452;11.494;2023-04-08T11:32:21;18.30;37.70
33564;DHT22;19894;48.452;11.494;2023-04-08T11:34:47;18.30;37.70
33564;DHT22;19894;48.452;11.494;2023-04-08T11:37:13;18.30;37.70
33564;DHT22;19894;48.452;11.494;2023-04-08T11:39:42;18.30;37.60
33564;DHT22;19894;48.452;11.494;2023-04-08T11:42:08;18.30;37.70
33564;DHT22;19894;48.452;11.494;2023-04-08T11:44:34;18.30;37.70
33564;DHT22;19894;48.452;11.494;2023-04-08T11:47:00;18.30;37.70
33564;DHT22;19894;48.452;11.494;2023-04-08T11:49:26;18.20;37.70
33564;DHT22;19894;48.452;11.494;2023-04-08T11:51:57;18.30;37.70
33564;DHT22;19894;48.452;11.494;2023-04-08T11:54:30;18.30;37.70
33564;DHT22;19894;48.452;11.494;2023-04-08T11:56:56;18.30;37.70
33564;DHT22;19894;48.452;11.494;2023-04-08T11:59:23;18.30;37.80
33564;DHT22;19894;48.452;11.494;2023-04-08T12:01:50;18.20;37.80
33564;DHT22;19894;48.452;11.494;2023-04-08T12:04:16;18.20;38.30
33564;DHT22;19894;48.452;11.494;2023-04-08T12:06:42;18.20;37.80
33564;DHT22;19894;48.452;11.494;2023-04-08T12:09:11;18.20;37.80
33564;DHT22;19894;48.452;11.494;2023-04-08T12:11:37;18.20;37.80
33564;DHT22;19894;48.452;11.494;2023-04-08T12:14:02;18.20;37.80
33564;DHT22;19894;48.452;11.494;2023-04-08T12:16:28;18.20;37.80
33564;DHT22;19894;48.452;11.494;2023-04-08T12:18:53;18.20;37.80
33564;DHT22;19894;48.452;11.494;2023-04-08T12:21:19;18.20;37.80
33564;DHT22;19894;48.452;11.494;2023-04-08T12:23:44;18.20;37.80
33564;DHT22;19894;48.452;11.494;2023-04-08T12:26:10;18.20;37.80
33564;DHT22;19894;48.452;11.494;2023-04-08T12:28:36;18.20;37.80
33564;DHT22;19894;48.452;11.494;2023-04-08T12:31:02;18.20;37.80
33564;DHT22;19894;48.452;11.494;2023-04-08T12:33:28;18.30;37.90
33564;DHT22;19894;48.452;11.494;2023-04-08T12:35:53;18.20;37.80
33564;DHT22;19894;48.452;11.494;2023-04-08T12:38:19;18.30;37.90
33564;DHT22;19894;48.452;11.494;2023-04-08T12:40:44;18.30;37.90
33564;DHT22;19894;48.452;11.494;2023-04-08T12:43:10;18.20;37.80
33564;DHT22;19894;48.452;11.494;2023-04-08T12:45:36;18.30;37.90
33564;DHT22;19894;48.452;11.494;2023-04-08T12:48:02;18.30;37.90
33564;DHT22;19894;48.452;11.494;2023-04-08T12:50:27;18.20;37.80
33564;DHT22;19894;48.452;11.494;2023-04-08T12:52:53;18.30;37.80
33564;DHT22;19894;48.452;11.494;2023-04-08T12:55:18;18.20;37.80
33564;DHT22;19894;48.452;11.494;2023-04-08T12:57:44;18.20;37.80
33564;DHT22;19894;48.452;11.494;2023-04-08T13:00:10;18.20;37.80
33564;DHT22;19894;48.452;11.494;2023-04-08T13:02:36;18.30;37.90
33564;DHT22;19894;48.452;11.494;2023-04-08T13:05:01;18.20;37.80
33564;DHT22;19894;48.452;11.494;2023-04-08T13:07:27;18.30;37.90
33564;DHT22;19894;48.452;11.494;2023-04-08T13:09:52;18.30;37.90
33564;DHT22;19894;48.452;11.494;2023-04-08T13:12:18;18.20;37.80
33564;DHT22;19894;48.452;11.494;2023-04-08T13:14:43;18.20;37.80
33564;DHT22;19894;48.452;11.494;2023-04-08T13:17:09;18.20;37.80
33564;DHT22;19894;48.452;11.494;2023-04-08T13:19:35;18.20;37.80
33564;DHT22;19894;48.452;11.494;2023-04-08T13:22:00;18.20;37.90
33564;DHT22;19894;48.452;11.494;2023-04-08T13:24:26;18.20;37.80
33564;DHT22;19894;48.452;11.494;2023-04-08T13:26:51;18.30;37.90
33564;DHT22;19894;48.452;11.494;2023-04-08T13:29:19;18.20;37.80
33564;DHT22;19894;48.452;11.494;2023-04-08T13:31:44;18.20;37.80
33564;DHT22;19894;48.452;11.494;2023-04-08T13:34:10;18.30;37.90
33564;DHT22;19894;48.452;11.494;2023-04-08T13:36:35;18.30;37.90
33564;DHT22;19894;48.452;11.494;2023-04-08T13:39:01;18.30;38.00
33564;DHT22;19894;48.452;11.494;2023-04-08T13:41:27;18.30;38.10
33564;DHT22;19894;48.452;11.494;2023-04-08T13:43:53;18.30;38.10
33564;DHT22;19894;48.452;11.494;2023-04-08T13:46:19;18.30;38.10
33564;DHT22;19894;48.452;11.494;2023-04-08T13:48:44;18.30;38.10
33564;DHT22;19894;48.452;11.494;2023-04-08T13:51:10;18.30;38.10
33564;DHT22;19894;48.452;11.494;2023-04-08T13:53:36;18.30;38.10
33564;DHT22;19894;48.452;11.494;2023-04-08T13:56:01;18.30;38.20
33564;DHT22;19894;48.452;11.494;2023-04-08T13:58:27;18.30;38.40
33564;DHT22;19894;48.452;11.494;2023-04-08T14:00:52;18.30;38.50
33564;DHT22;19894;48.452;11.494;2023-04-08T14:03:18;18.30;38.50
33564;DHT22;19894;48.452;11.494;2023-04-08T14:05:43;18.30;38.40
33564;DHT22;19894;48.452;11.494;2023-04-08T14:08:09;18.30;38.30
33564;DHT22;19894;48.452;11.494;2023-04-08T14:10:36;18.30;38.10
33564;DHT22;19894;48.452;11.494;2023-04-08T14:13:02;18.30;37.90
33564;DHT22;19894;48.452;11.494;2023-04-08T14:15:28;18.30;37.90
33564;DHT22;19894;48.452;11.494;2023-04-08T14:17:53;18.30;37.90
33564;DHT22;19894;48.452;11.494;2023-04-08T14:20:20;18.30;37.90
33564;DHT22;19894;48.452;11.494;2023-04-08T14:22:45;18.30;37.90
33564;DHT22;19894;48.452;11.494;2023-04-08T14:25:11;18.30;37.90
33564;DHT22;19894;48.452;11.494;2023-04-08T14:27:36;18.30;38.40
33564;DHT22;19894;48.452;11.494;2023-04-08T14:30:02;18.30;38.00
33564;DHT22;19894;48.452;11.494;2023-04-08T14:32:27;18.30;37.90
33564;DHT22;19894;48.452;11.494;2023-04-08T14:34:53;18.30;38.00
33564;DHT22;19894;48.452;11.494;2023-04-08T14:37:18;18.30;38.00
33564;DHT22;19894;48.452;11.494;2023-04-08T14:39:44;18.30;38.00
33564;DHT22;19894;48.452;11.494;2023-04-08T14:42:10;18.30;38.00
33564;DHT22;19894;48.452;11.494;2023-04-08T14:44:36;18.30;37.90
33564;DHT22;19894;48.452;11.494;2023-04-08T14:47:01;18.30;37.90
33564;DHT22;19894;48.452;11.494;2023-04-08T14:49:27;18.30;38.00
33564;DHT22;19894;48.452;11.494;2023-04-08T14:51:52;18.30;38.00
33564;DHT22;19894;48.452;11.494;2023-04-08T14:54:18;18.30;38.00
33564;DHT22;19894;48.452;11.494;2023-04-08T14:56:44;18.30;38.10
33564;DHT22;19894;48.452;11.494;2023-04-08T14:59:09;18.30;38.00
33564;DHT22;19894;48.452;11.494;2023-04-08T15:01:35;18.30;38.10
33564;DHT22;19894;48.452;11.494;2023-04-08T15:04:01;18.40;38.20
33564;DHT22;19894;48.452;11.494;2023-04-08T15:06:26;18.40;38.10
33564;DHT22;19894;48.452;11.494;2023-04-08T15:08:52;18.30;38.10
33564;DHT22;19894;48.452;11.494;2023-04-08T15:11:18;18.30;38.10
33564;DHT22;19894;48.452;11.494;2023-04-08T15:13:46;18.30;38.10
33564;DHT22;19894;48.452;11.494;2023-04-08T15:16:12;18.30;38.10
33564;DHT22;19894;48.452;11.494;2023-04-08T15:18:37;18.30;38.10
33564;DHT22;19894;48.452;11.494;2023-04-08T15:21:03;18.30;38.10
33564;DHT22;19894;48.452;11.494;2023-04-08T15:23:29;18.30;38.10